Time;durP1;ratioP1;P1;durP2;ratioP2;P2;SDS_P1;SDS_P2;PMS_P1;PMS_P2;Temp;Humidity;BMP_temperature;BMP_pressure;BME280_temperature;BME280_humidity;BME280_pressure;Samples;Min_cycle;Max_cycle;Signal;HPM_P1;HPM_P2
2022/03/04 00:01:25;;;;;;;;;93.00;73.25;;;;;5.26;36.97;99195.44;4990588;28;9927;-76
2022/03/04 00:03:54;;;;;;;;;95.25;74.50;;;;;5.26;36.62;99195.44;4941387;28;9836;-75
2022/03/04 00:06:23;;;;;;;;;92.25;70.50;;;;;5.32;36.86;99194.69;4991910;28;9902;-75
2022/03/04 00:08:53;;;;;;;;;87.67;69.00;;;;;5.32;36.49;99199.84;4989927;28;9562;-74
2022/03/04 00:11:21;;;;;;;;;88.50;70.50;;;;;5.37;36.82;99195.63;5006298;28;9618;-74
2022/03/04 00:13:50;;;;;;;;;90.50;66.50;;;;;5.41;36.65;99187.06;5005769;28;9584;-76
2022/03/04 00:16:19;;;;;;;;;96.50;70.00;;;;;5.45;36.89;99203.50;4993677;28;9674;-75
2022/03/04 00:19:06;;;;;;;;;89.50;69.50;;;;;5.46;36.76;99187.09;4989669;28;9593;-74
2022/03/04 00:21:36;;;;;;;;;89.00;69.00;;;;;5.46;36.85;99195.75;4990056;28;10327;-75
2022/03/04 00:24:07;;;;;;;;;87.33;70.67;;;;;5.49;36.86;99191.47;5005928;28;9436;-74
2022/03/04 00:26:36;;;;;;;;;94.50;72.25;;;;;5.51;36.99;99189.78;4956574;28;10096;-73
2022/03/04 00:29:06;;;;;;;;;90.50;68.75;;;;;5.50;36.68;99190.59;4987852;28;9726;-76
2022/03/04 00:31:35;;;;;;;;;93.25;70.25;;;;;5.50;37.23;99199.25;4971404;28;9493;-76
2022/03/04 00:34:06;;;;;;;;;90.00;71.00;;;;;5.50;36.79;99194.09;4955996;28;9659;-77
2022/03/04 00:36:35;;;;;;;;;97.00;73.25;;;;;5.50;36.77;99188.91;4990916;28;9318;-75
2022/03/04 00:39:07;;;;;;;;;98.00;75.50;;;;;5.51;37.00;99187.19;4988161;28;9657;-74
2022/03/04 00:41:36;;;;;;;;;89.75;72.25;;;;;5.51;36.89;99189.78;4971923;28;9947;-75
2022/03/04 00:44:06;;;;;;;;;103.50;80.50;;;;;5.50;37.33;99185.44;4972905;28;9821;-74
2022/03/04 00:46:35;;;;;;;;;103.25;82.50;;;;;5.49;37.20;99186.31;4956793;28;10161;-76
2022/03/04 00:49:05;;;;;;;;;104.25;81.50;;;;;5.49;37.38;99175.97;4989152;28;9818;-76
2022/03/04 00:51:34;;;;;;;;;96.75;76.50;;;;;5.45;37.48;99175.91;4972818;28;10526;-75
2022/03/04 00:54:02;;;;;;;;;96.50;73.50;;;;;5.41;37.35;99171.53;4990842;28;10380;-74
2022/03/04 00:56:33;;;;;;;;;101.00;81.75;;;;;5.38;37.68;99176.66;4975910;28;10644;-77
2022/03/04 00:59:01;;;;;;;;;74.00;56.75;;;;;5.33;37.32;99165.41;5008354;28;10328;-73
2022/03/04 01:01:30;;;;;;;;;97.00;74.75;;;;;5.28;37.45;99167.03;5008433;28;10109;-73
2022/03/04 01:03:59;;;;;;;;;103.50;83.75;;;;;5.25;37.69;99164.41;4975416;28;10222;-75
2022/03/04 01:06:28;;;;;;;;;96.50;75.00;;;;;5.21;37.72;99173.81;4976808;28;10497;-74
2022/03/04 01:08:57;;;;;;;;;94.50;78.75;;;;;5.18;38.15;99172.91;4990341;28;10045;-74
2022/03/04 01:11:25;;;;;;;;;97.75;74.00;;;;;5.18;37.91;99167.75;4989049;28;10305;-76
2022/03/04 01:13:55;;;;;;;;;92.50;72.75;;;;;5.16;38.13;99164.25;5022833;28;9892;-74
2022/03/04 01:16:25;;;;;;;;;96.25;75.25;;;;;5.16;37.71;99157.41;5027952;28;9875;-75
2022/03/04 01:18:54;;;;;;;;;96.00;72.75;;;;;5.12;38.22;99165.94;4991878;28;9875;-76
2022/03/04 01:21:22;;;;;;;;;93.50;72.50;;;;;5.11;38.49;99163.34;4999992;28;10898;-75
2022/03/04 01:23:51;;;;;;;;;97.50;76.00;;;;;5.09;37.95;99155.56;4972458;28;10054;-74
2022/03/04 01:26:20;;;;;;;;;99.25;73.25;;;;;5.05;38.67;99157.22;4925068;28;9655;-75
2022/03/04 01:28:48;;;;;;;;;93.75;73.75;;;;;5.02;38.62;99158.91;4988386;28;9992;-73
2022/03/04 01:31:18;;;;;;;;;89.25;72.00;;;;;4.97;38.53;99157.94;4972180;28;9889;-76
2022/03/04 01:33:47;;;;;;;;;68.25;51.75;;;;;4.95;38.72;99150.16;4955966;28;9991;-75
2022/03/04 01:36:16;;;;;;;;;95.75;74.00;;;;;4.94;38.47;99150.16;5004199;28;9783;-76
2022/03/04 01:38:44;;;;;;;;;97.25;73.25;;;;;4.93;38.52;99151.00;4972567;28;9735;-75
2022/03/04 01:41:13;;;;;;;;;91.00;72.25;;;;;4.93;39.07;99153.59;4968608;28;9931;-74
2022/03/04 01:43:41;;;;;;;;;91.50;71.00;;;;;4.93;38.79;99144.09;4936640;28;9921;-76
2022/03/04 01:46:14;;;;;;;;;90.50;70.75;;;;;4.93;38.32;99143.25;4952623;28;9510;-75
2022/03/04 01:48:46;;;;;;;;;96.25;72.00;;;;;4.86;38.85;99144.88;4875044;28;9662;-75
2022/03/04 01:51:14;;;;;;;;;87.25;69.50;;;;;4.85;38.72;99144.00;4968657;28;9880;-75
2022/03/04 01:53:43;;;;;;;;;88.50;69.25;;;;;4.84;38.55;99147.44;4984658;28;10853;-74
2022/03/04 01:56:13;;;;;;;;;86.50;69.50;;;;;4.81;38.70;99143.94;4952157;28;9867;-74
2022/03/04 01:58:42;;;;;;;;;91.00;71.75;;;;;4.80;38.88;99144.75;4999438;28;9636;-74
2022/03/04 02:01:11;;;;;;;;;92.67;70.33;;;;;4.79;38.75;99137.88;4955294;28;9603;-75
2022/03/04 02:03:40;;;;;;;;;92.33;70.33;;;;;4.79;38.87;99143.91;4971643;28;9347;-76
2022/03/04 02:06:10;;;;;;;;;89.75;68.00;;;;;4.76;39.31;99130.91;4971509;28;9433;-73
2022/03/04 02:08:39;;;;;;;;;89.00;69.33;;;;;4.77;39.30;99131.81;4987568;28;9518;-75
2022/03/04 02:11:08;;;;;;;;;91.00;73.00;;;;;4.72;39.09;99130.88;4955181;28;9435;-75
2022/03/04 02:13:39;;;;;;;;;90.75;72.00;;;;;4.71;39.45;99134.28;4992126;28;9559;-76
2022/03/04 02:16:13;;;;;;;;;86.00;67.00;;;;;4.69;39.81;99134.28;4958322;28;9733;-76
2022/03/04 02:18:42;;;;;;;;;86.25;66.00;;;;;4.68;39.54;99129.94;5008437;28;9405;-76
2022/03/04 02:21:15;;;;;;;;;93.00;70.67;;;;;4.66;39.30;99132.50;5008446;28;10241;-77
2022/03/04 02:23:45;;;;;;;;;86.67;67.67;;;;;4.67;39.24;99135.97;5008015;28;9445;-76
2022/03/04 02:26:13;;;;;;;;;87.50;69.25;;;;;4.66;39.39;99137.66;4991595;28;9583;-75
2022/03/04 02:28:42;;;;;;;;;87.00;65.33;;;;;4.61;39.56;99131.56;5009297;28;9557;-74
2022/03/04 02:31:13;;;;;;;;;92.00;71.33;;;;;4.61;39.62;99131.56;5007964;28;9361;-76
2022/03/04 02:33:43;;;;;;;;;83.00;63.33;;;;;4.60;39.43;99136.69;5007769;28;9279;-76
2022/03/04 02:36:13;;;;;;;;;88.33;69.67;;;;;4.60;39.91;99140.16;5008163;28;9316;-75
2022/03/04 02:38:42;;;;;;;;;92.00;70.67;;;;;4.61;40.00;99138.44;4974724;28;9355;-74
2022/03/04 02:41:12;;;;;;;;;86.67;67.33;;;;;4.60;40.03;99131.53;5008107;28;9279;-74
2022/03/04 02:43:40;;;;;;;;;89.33;69.33;;;;;4.59;40.17;99135.81;5006800;28;9257;-74
2022/03/04 02:46:09;;;;;;;;;69.00;57.00;;;;;4.57;40.15;99142.66;5009082;28;10280;-74
2022/03/04 02:48:38;;;;;;;;;85.33;64.67;;;;;4.56;39.92;99135.78;5009345;28;9310;-76
2022/03/04 02:51:08;;;;;;;;;86.67;68.00;;;;;4.53;40.07;99140.03;5007906;28;9347;-74
2022/03/04 02:53:36;;;;;;;;;89.33;70.67;;;;;4.52;40.05;99146.91;5008018;28;9541;-75
2022/03/04 02:56:05;;;;;;;;;85.00;65.67;;;;;4.52;40.27;99141.75;5009186;28;9407;-76
2022/03/04 02:58:36;;;;;;;;;87.67;67.33;;;;;4.50;40.41;99140.84;4958822;28;10261;-76
2022/03/04 03:01:04;;;;;;;;;83.00;65.00;;;;;4.50;40.40;99156.34;5007910;28;9348;-76
2022/03/04 03:03:34;;;;;;;;;82.67;66.33;;;;;4.48;40.52;99145.13;5007447;28;9309;-75
2022/03/04 03:06:03;;;;;;;;;89.33;67.00;;;;;4.48;40.49;99150.28;4991855;28;9395;-75
2022/03/04 03:08:31;;;;;;;;;85.25;69.25;;;;;4.44;40.36;99149.34;4990265;28;9333;-75
2022/03/04 03:11:06;;;;;;;;;84.67;68.67;;;;;4.41;40.88;99140.69;4976242;28;9626;-74
2022/03/04 03:13:36;;;;;;;;;89.33;69.00;;;;;4.40;40.70;99149.25;5008619;28;9394;-74
2022/03/04 03:16:05;;;;;;;;;84.00;67.33;;;;;4.39;40.61;99143.22;5007328;28;9506;-75
2022/03/04 03:18:34;;;;;;;;;91.25;69.25;;;;;4.43;41.03;99151.91;4991086;28;9506;-74
2022/03/04 03:21:03;;;;;;;;;86.50;65.25;;;;;4.40;41.27;99151.84;4989516;28;9459;-76
2022/03/04 03:23:32;;;;;;;;;93.67;72.67;;;;;4.43;40.87;99149.31;5005385;28;9774;-76
2022/03/04 03:26:00;;;;;;;;;90.67;69.67;;;;;4.42;41.34;99147.56;4989682;28;9400;-74
2022/03/04 03:28:29;;;;;;;;;87.75;67.75;;;;;4.39;41.13;99139.78;5041475;28;9497;-75
2022/03/04 03:31:00;;;;;;;;;97.00;75.25;;;;;4.40;41.14;99149.25;5042205;28;9666;-77
2022/03/04 03:33:28;;;;;;;;;89.75;70.75;;;;;4.38;40.94;99145.78;4992823;28;9553;-74
2022/03/04 03:35:57;;;;;;;;;92.25;70.75;;;;;4.37;41.33;99147.50;5009465;28;9506;-75
2022/03/04 03:38:25;;;;;;;;;85.33;68.00;;;;;4.38;41.63;99148.38;5009362;28;9577;-74
2022/03/04 03:40:54;;;;;;;;;89.00;66.00;;;;;4.35;41.64;99150.88;4989099;28;9488;-74
2022/03/04 03:43:40;;;;;;;;;91.00;69.67;;;;;4.35;41.74;99148.28;4972806;28;9524;-75
2022/03/04 03:46:10;;;;;;;;;92.75;71.00;;;;;4.34;41.58;99146.56;4985374;28;9352;-75
2022/03/04 03:48:40;;;;;;;;;82.50;65.75;;;;;4.31;41.66;99147.41;4950845;28;9726;-75
2022/03/04 03:51:11;;;;;;;;;90.33;72.67;;;;;4.30;41.80;99146.50;4956245;28;9682;-76
2022/03/04 03:53:40;;;;;;;;;85.00;68.75;;;;;4.30;41.81;99141.34;4985855;28;9546;-75
2022/03/04 03:56:08;;;;;;;;;72.75;54.00;;;;;4.25;41.56;99140.41;4970027;28;11167;-76
2022/03/04 03:58:37;;;;;;;;;88.67;71.33;;;;;4.28;41.91;99140.44;4919678;28;9724;-75
2022/03/04 04:01:06;;;;;;;;;91.00;71.50;;;;;4.27;41.92;99145.56;4947401;29;9587;-74
2022/03/04 04:03:36;;;;;;;;;90.25;69.75;;;;;4.21;42.14;99143.75;4915833;29;9501;-74
2022/03/04 04:06:05;;;;;;;;;96.75;74.50;;;;;4.21;42.07;99148.06;4942776;29;9738;-75
2022/03/04 04:08:33;;;;;;;;;98.50;75.25;;;;;4.23;41.84;99151.53;4932944;29;9900;-78
2022/03/04 04:11:03;;;;;;;;;85.25;66.75;;;;;4.21;42.25;99146.34;4935126;28;9837;-76
2022/03/04 04:13:31;;;;;;;;;97.00;75.00;;;;;4.24;41.89;99148.97;4989330;28;9752;-75
2022/03/04 04:16:00;;;;;;;;;91.50;73.75;;;;;4.25;42.26;99155.00;4987535;28;10616;-76
2022/03/04 04:18:28;;;;;;;;;101.25;75.00;;;;;4.27;42.29;99153.31;4986271;28;9642;-76
2022/03/04 04:20:59;;;;;;;;;93.75;73.25;;;;;4.29;42.14;99157.69;4985418;28;9646;-75
2022/03/04 04:23:28;;;;;;;;;94.25;73.25;;;;;4.27;42.05;99154.22;4997776;28;9925;-78
2022/03/04 04:25:56;;;;;;;;;96.25;75.50;;;;;4.29;41.97;99161.97;5004751;28;9832;-74
2022/03/04 04:28:26;;;;;;;;;104.25;80.50;;;;;4.20;42.37;99151.50;4992863;28;9936;-74
2022/03/04 04:30:54;;;;;;;;;99.25;75.25;;;;;4.15;42.93;99160.84;4989131;28;10106;-76
2022/03/04 04:33:23;;;;;;;;;98.50;75.75;;;;;4.12;42.78;99159.09;4988569;28;9923;-74
2022/03/04 04:35:53;;;;;;;;;82.75;64.25;;;;;4.09;43.19;99166.75;4986266;28;10625;-75
2022/03/04 04:38:23;;;;;;;;;97.00;74.50;;;;;4.09;42.87;99166.75;4991023;28;9956;-75
2022/03/04 04:40:52;;;;;;;;;97.50;76.25;;;;;4.09;42.82;99167.63;5010717;28;9950;-75
2022/03/04 04:43:20;;;;;;;;;96.75;75.75;;;;;4.08;42.71;99173.66;5010635;28;9876;-74
2022/03/04 04:45:49;;;;;;;;;93.50;71.25;;;;;4.08;42.79;99172.75;5009140;28;10003;-75
2022/03/04 04:48:17;;;;;;;;;97.25;73.25;;;;;4.04;42.83;99173.53;4960576;28;9736;-75
2022/03/04 04:50:46;;;;;;;;;87.00;69.75;;;;;4.01;42.97;99170.91;4945162;28;9744;-76
2022/03/04 04:53:15;;;;;;;;;93.25;72.00;;;;;4.02;43.01;99181.25;4976116;28;9900;-74
2022/03/04 04:55:45;;;;;;;;;101.25;74.50;;;;;4.03;42.69;99176.97;4992530;28;9642;-75
2022/03/04 04:58:14;;;;;;;;;97.75;76.00;;;;;4.04;42.51;99170.97;4992631;28;9946;-76
2022/03/04 05:00:43;;;;;;;;;93.25;72.50;;;;;4.01;43.40;99171.78;4976238;28;9715;-77
2022/03/04 05:03:11;;;;;;;;;98.25;77.25;;;;;4.01;43.24;99170.91;4992364;28;10228;-77
2022/03/04 05:05:40;;;;;;;;;108.50;86.00;;;;;4.04;43.25;99178.69;5008409;28;9898;-77
2022/03/04 05:08:09;;;;;;;;;89.50;68.75;;;;;4.04;42.91;99176.97;4992162;28;10495;-76
2022/03/04 05:10:38;;;;;;;;;88.75;71.75;;;;;4.06;42.81;99184.75;5008543;28;10052;-75
2022/03/04 05:13:07;;;;;;;;;92.75;72.75;;;;;4.07;43.01;99186.50;4949816;28;9920;-74
2022/03/04 05:15:36;;;;;;;;;89.75;71.50;;;;;4.12;43.19;99181.41;4915108;29;9751;-75
2022/03/04 05:18:06;;;;;;;;;96.50;76.00;;;;;4.13;43.16;99178.03;4930551;29;9746;-75
2022/03/04 05:20:34;;;;;;;;;101.00;77.50;;;;;4.16;42.91;99178.06;4930721;29;10013;-76
2022/03/04 05:23:03;;;;;;;;;106.25;83.25;;;;;4.16;42.95;99180.63;4914778;29;10007;-76
2022/03/04 05:25:32;;;;;;;;;92.75;72.00;;;;;4.21;43.19;99186.75;4915047;29;10800;-76
2022/03/04 05:28:00;;;;;;;;;96.50;75.00;;;;;4.22;43.30;99189.38;4930499;29;10186;-76
2022/03/04 05:30:30;;;;;;;;;93.00;72.25;;;;;4.25;43.04;99189.44;4899716;29;9957;-77
2022/03/04 05:32:59;;;;;;;;;94.00;74.00;;;;;4.25;43.29;99188.56;4930598;29;9989;-74
2022/03/04 05:35:27;;;;;;;;;140.25;119.50;;;;;4.26;43.29;99191.19;4914877;29;10731;-76
2022/03/04 05:37:56;;;;;;;;;125.75;103.25;;;;;4.30;43.75;99194.69;4899001;29;11630;-75
2022/03/04 05:40:24;;;;;;;;;103.25;79.75;;;;;4.30;43.32;99194.69;4930475;29;11569;-76
2022/03/04 05:42:53;;;;;;;;;100.00;78.25;;;;;4.32;42.79;99195.59;4930675;29;10509;-75
2022/03/04 05:45:22;;;;;;;;;96.25;75.00;;;;;4.34;43.09;99203.38;4968932;28;9988;-76
2022/03/04 05:47:52;;;;;;;;;100.00;75.50;;;;;4.32;42.52;99203.31;5006222;28;9587;-75
2022/03/04 05:50:20;;;;;;;;;95.50;72.00;;;;;4.29;43.14;99209.31;4990447;28;9958;-75
2022/03/04 05:52:49;;;;;;;;;90.75;71.75;;;;;4.31;43.05;99211.94;4942686;28;10020;-76
2022/03/04 05:55:22;;;;;;;;;95.75;73.25;;;;;4.33;43.01;99207.66;4990747;28;9679;-77
2022/03/04 05:57:51;;;;;;;;;91.50;72.50;;;;;4.34;43.39;99213.69;4991040;28;9632;-76
2022/03/04 06:00:19;;;;;;;;;93.25;74.25;;;;;4.34;43.49;99217.13;4990438;28;9812;-75
2022/03/04 06:02:48;;;;;;;;;97.50;74.75;;;;;4.39;43.12;99212.06;5006837;28;9689;-76
2022/03/04 06:05:19;;;;;;;;;95.75;74.00;;;;;4.41;43.17;99219.00;4990826;28;9811;-75
2022/03/04 06:07:47;;;;;;;;;97.75;76.00;;;;;4.46;43.15;99222.53;4990456;28;9896;-75
2022/03/04 06:10:16;;;;;;;;;98.50;75.50;;;;;4.51;42.83;99227.78;4990376;28;10104;-76
2022/03/04 06:12:44;;;;;;;;;90.00;69.25;;;;;4.45;43.11;99230.25;5006404;28;10118;-76
2022/03/04 06:15:13;;;;;;;;;97.50;73.00;;;;;4.43;43.35;99232.78;4990572;28;9848;-75
2022/03/04 06:17:46;;;;;;;;;95.25;76.00;;;;;4.45;43.56;99230.25;4990692;28;9913;-74
2022/03/04 06:20:15;;;;;;;;;96.50;75.25;;;;;4.44;43.24;99229.38;4974573;28;9862;-74
2022/03/04 06:22:45;;;;;;;;;93.00;74.75;;;;;4.49;43.13;99232.91;5026229;28;9983;-77
2022/03/04 06:25:15;;;;;;;;;101.50;76.75;;;;;4.41;43.49;99236.19;5013665;28;10873;-74
2022/03/04 06:27:54;;;;;;;;;101.25;79.00;;;;;4.48;43.25;99245.81;5010112;28;9975;-75
2022/03/04 06:30:23;;;;;;;;;90.50;72.75;;;;;4.53;43.02;99241.56;5009638;28;9924;-75
2022/03/04 06:33:30;;;;;;;;;90.75;71.25;;;;;4.58;43.02;99242.53;5006565;28;9664;-75
2022/03/04 06:35:44;;;;;;;;;90.75;71.50;;;;;4.68;42.90;99235.81;4995269;28;9781;-75
2022/03/04 06:38:14;;;;;;;;;83.50;66.50;;;;;4.76;42.87;99239.41;5022748;28;9788;-74
2022/03/04 06:40:43;;;;;;;;;91.50;71.00;;;;;4.79;42.97;99239.47;4992735;28;9738;-75
2022/03/04 06:43:12;;;;;;;;;93.75;73.75;;;;;4.79;43.21;99243.78;5007651;28;9560;-75
2022/03/04 06:45:42;;;;;;;;;85.75;65.75;;;;;4.77;42.67;99242.88;4977306;28;9804;-76
2022/03/04 06:48:11;;;;;;;;;91.00;72.00;;;;;4.78;43.32;99244.59;4984796;28;10598;-75
2022/03/04 06:50:40;;;;;;;;;92.00;73.75;;;;;4.85;42.87;99249.03;4960101;28;10096;-75
2022/03/04 06:53:09;;;;;;;;;103.00;78.25;;;;;4.97;42.74;99250.97;4949657;28;10020;-76
2022/03/04 06:55:39;;;;;;;;;97.00;73.00;;;;;4.83;42.59;99248.16;4965136;28;10193;-75
2022/03/04 06:58:07;;;;;;;;;99.50;77.50;;;;;4.77;43.11;99254.06;4934392;28;10579;-76
2022/03/04 07:00:37;;;;;;;;;97.75;73.25;;;;;4.72;43.06;99253.13;4947557;28;10217;-77
2022/03/04 07:03:06;;;;;;;;;92.00;71.50;;;;;4.62;42.92;99262.41;4931658;28;9739;-76
2022/03/04 07:05:35;;;;;;;;;92.75;70.75;;;;;4.44;43.69;99269.78;4933666;28;9774;-78
2022/03/04 07:08:06;;;;;;;;;89.00;69.67;;;;;4.66;43.64;99266.78;4935501;28;9755;-74
2022/03/04 07:10:35;;;;;;;;;89.75;71.50;;;;;4.62;43.72;99277.03;4947138;28;9654;-78
2022/03/04 07:13:06;;;;;;;;;92.25;73.75;;;;;4.82;43.50;99275.69;4950493;28;9622;-75
2022/03/04 07:15:35;;;;;;;;;88.50;68.50;;;;;4.97;43.09;99271.63;4966799;28;9761;-76
2022/03/04 07:18:04;;;;;;;;;91.50;68.00;;;;;5.17;42.81;99272.84;4950251;28;9807;-75
2022/03/04 07:20:33;;;;;;;;;96.00;75.50;;;;;5.15;42.60;99276.25;4903805;28;9617;-75
2022/03/04 07:23:01;;;;;;;;;86.25;66.50;;;;;5.21;42.80;99278.94;4962707;28;9799;-78
2022/03/04 07:25:30;;;;;;;;;90.25;69.50;;;;;5.44;42.30;99272.44;5004904;28;9611;-77
2022/03/04 07:27:59;;;;;;;;;93.25;73.00;;;;;5.67;42.09;99277.06;4989489;28;9493;-77
2022/03/04 07:30:29;;;;;;;;;92.75;73.75;;;;;5.85;42.01;99281.66;4996552;28;9630;-76
2022/03/04 07:32:58;;;;;;;;;86.75;69.00;;;;;6.05;41.52;99282.84;5001578;28;9631;-74
2022/03/04 07:35:28;;;;;;;;;85.50;70.00;;;;;6.27;41.24;99279.66;5006673;28;9672;-77
2022/03/04 07:37:57;;;;;;;;;88.75;69.75;;;;;6.44;40.84;99273.81;5006158;28;9796;-77
2022/03/04 07:40:26;;;;;;;;;84.25;64.50;;;;;6.58;40.47;99279.16;5006348;28;9640;-75
2022/03/04 07:42:54;;;;;;;;;88.75;69.25;;;;;6.76;40.20;99277.63;5002263;28;9721;-74
2022/03/04 07:45:23;;;;;;;;;92.75;71.25;;;;;6.90;39.62;99280.34;4988431;28;10029;-74
2022/03/04 07:47:53;;;;;;;;;88.50;70.25;;;;;7.03;39.51;99280.50;4925243;28;9729;-75
2022/03/04 07:50:22;;;;;;;;;91.00;73.50;;;;;7.17;39.54;99277.16;4973218;28;10014;-77
2022/03/04 07:52:51;;;;;;;;;94.00;71.00;;;;;7.27;39.11;99285.88;4993788;28;9759;-72
2022/03/04 07:55:20;;;;;;;;;94.00;70.00;;;;;7.26;39.35;99282.41;5000063;28;10596;-73
2022/03/04 07:57:48;;;;;;;;;97.00;73.75;;;;;7.12;39.07;99281.41;4987684;28;9942;-74
2022/03/04 08:00:18;;;;;;;;;96.75;79.00;;;;;7.22;39.07;99278.94;4976259;28;11030;-74
2022/03/04 08:02:47;;;;;;;;;97.50;77.00;;;;;6.99;38.49;99283.91;4987555;28;10382;-74
2022/03/04 08:05:17;;;;;;;;;94.50;75.00;;;;;7.06;38.92;99289.16;5005009;28;10406;-73
2022/03/04 08:07:45;;;;;;;;;90.75;71.50;;;;;7.18;39.46;99294.44;5003043;28;10214;-73
2022/03/04 08:10:15;;;;;;;;;93.00;76.00;;;;;6.15;40.62;99295.91;5004865;28;9938;-73
2022/03/04 08:12:44;;;;;;;;;89.25;71.00;;;;;6.52;40.21;99296.34;5003661;28;11665;-73
2022/03/04 08:15:13;;;;;;;;;93.00;70.75;;;;;6.82;40.08;99298.41;5009775;28;9918;-73
2022/03/04 08:17:44;;;;;;;;;94.25;77.75;;;;;7.06;39.40;99295.19;5025962;28;9825;-73
2022/03/04 08:20:12;;;;;;;;;97.00;77.50;;;;;7.26;39.18;99291.91;4991911;28;10072;-74
2022/03/04 08:22:43;;;;;;;;;72.50;57.75;;;;;7.34;38.72;99293.72;5009865;28;10175;-74
2022/03/04 08:25:11;;;;;;;;;88.50;69.25;;;;;7.03;39.05;99296.03;5009810;28;10099;-74
2022/03/04 08:27:40;;;;;;;;;87.00;68.75;;;;;7.34;38.99;99293.72;5009018;28;9876;-74
2022/03/04 08:30:11;;;;;;;;;87.25;68.25;;;;;7.55;39.00;99289.56;4980282;28;9598;-75
2022/03/04 08:32:41;;;;;;;;;93.50;74.50;;;;;7.41;38.73;99295.50;5025582;28;10404;-76
2022/03/04 08:35:11;;;;;;;;;90.50;69.00;;;;;7.37;39.20;99291.16;4989798;28;9731;-77
2022/03/04 08:37:39;;;;;;;;;83.25;66.25;;;;;6.87;39.10;99295.88;5007041;28;9620;-75
2022/03/04 08:40:11;;;;;;;;;93.00;69.00;;;;;7.17;38.99;99303.09;4972659;28;9612;-75
2022/03/04 08:42:42;;;;;;;;;84.75;67.25;;;;;7.42;38.76;99302.41;5004459;28;9274;-74
2022/03/04 08:45:14;;;;;;;;;84.25;66.25;;;;;7.56;39.17;99291.28;4955967;28;9500;-76
2022/03/04 08:47:46;;;;;;;;;88.75;68.50;;;;;6.83;39.68;99297.56;4992745;28;9879;-75
2022/03/04 08:50:16;;;;;;;;;90.00;68.50;;;;;7.03;40.22;99301.22;5005500;28;9579;-74
2022/03/04 08:52:45;;;;;;;;;86.50;67.50;;;;;7.12;39.48;99299.56;5008319;28;9601;-75
2022/03/04 08:55:15;;;;;;;;;86.50;69.00;;;;;7.49;40.17;99297.31;5008579;28;9640;-73
2022/03/04 08:57:45;;;;;;;;;89.00;69.50;;;;;7.51;38.64;99298.19;4958186;28;10384;-79
2022/03/04 09:00:17;;;;;;;;;93.00;73.25;;;;;6.48;40.36;99303.19;5009645;28;9836;-73
2022/03/04 09:02:46;;;;;;;;;89.33;69.33;;;;;6.33;41.26;99303.03;4995562;28;9779;-74
2022/03/04 09:05:16;;;;;;;;;88.33;68.33;;;;;6.76;40.97;99306.13;4988978;28;9678;-74
2022/03/04 09:07:44;;;;;;;;;82.67;66.00;;;;;6.76;40.43;99300.94;4982778;28;9415;-74
2022/03/04 09:10:14;;;;;;;;;85.67;67.33;;;;;6.61;40.63;99299.03;5007773;28;9391;-74
2022/03/04 09:12:43;;;;;;;;;82.00;64.50;;;;;5.72;41.98;99310.78;4975768;28;9584;-72
2022/03/04 09:15:12;;;;;;;;;86.25;68.75;;;;;5.59;43.46;99312.31;4990921;28;9587;-76
2022/03/04 09:17:40;;;;;;;;;85.67;66.00;;;;;5.63;43.04;99307.22;4987915;28;9680;-74
2022/03/04 09:20:11;;;;;;;;;82.33;64.67;;;;;5.33;43.00;99307.59;4986277;28;9587;-76
2022/03/04 09:22:40;;;;;;;;;70.67;55.00;;;;;5.29;44.38;99308.38;4990708;28;9267;-74
2022/03/04 09:25:09;;;;;;;;;79.33;62.00;;;;;5.79;43.77;99308.31;4975071;28;9337;-75
2022/03/04 09:27:39;;;;;;;;;85.67;67.00;;;;;6.17;43.45;99307.16;4961924;28;9179;-73
2022/03/04 09:30:11;;;;;;;;;88.25;68.00;;;;;6.65;42.46;99306.00;5005196;28;9522;-74
2022/03/04 09:32:40;;;;;;;;;90.25;67.50;;;;;6.62;42.47;99316.34;5007184;28;9533;-73
2022/03/04 09:35:09;;;;;;;;;88.50;70.00;;;;;6.17;43.45;99310.59;5023241;28;9597;-72
2022/03/04 09:37:39;;;;;;;;;89.33;68.00;;;;;6.70;42.42;99309.50;5031966;28;9723;-74
2022/03/04 09:40:09;;;;;;;;;87.67;69.67;;;;;6.40;42.10;99312.59;5009677;28;9332;-73
2022/03/04 09:42:40;;;;;;;;;89.25;69.75;;;;;6.30;43.04;99305.59;4990371;28;9474;-76
2022/03/04 09:45:10;;;;;;;;;62.33;50.00;;;;;6.35;43.15;99306.50;5009271;28;9659;-73
2022/03/04 09:47:42;;;;;;;;;81.00;64.00;;;;;6.80;41.94;99298.38;5005444;28;9576;-74
2022/03/04 09:50:13;;;;;;;;;81.33;66.00;;;;;6.70;41.69;99304.31;4991458;28;9090;-73
2022/03/04 09:52:42;;;;;;;;;87.00;67.00;;;;;6.63;41.42;99306.00;4990605;28;9102;-74
2022/03/04 09:55:12;;;;;;;;;82.00;64.33;;;;;6.55;40.91;99301.56;4983241;28;10094;-73
2022/03/04 09:57:43;;;;;;;;;82.00;62.00;;;;;6.30;41.04;99298.69;4995786;28;9885;-75
2022/03/04 10:00:13;;;;;;;;;82.33;64.00;;;;;6.30;40.86;99297.81;5006801;28;9286;-74
2022/03/04 10:02:41;;;;;;;;;84.00;65.33;;;;;6.51;41.46;99304.97;5002054;28;9340;-75
2022/03/04 10:05:10;;;;;;;;;79.00;61.33;;;;;6.32;39.66;99304.75;5006425;28;9421;-76
2022/03/04 10:07:41;;;;;;;;;88.00;68.33;;;;;5.92;42.96;99305.91;4990848;28;9044;-76
2022/03/04 10:10:15;;;;;;;;;82.33;64.00;;;;;6.28;41.89;99297.78;4945192;28;10108;-74
2022/03/04 10:12:55;;;;;;;;;81.33;63.67;;;;;6.14;41.89;99297.59;5007890;28;9978;-74
2022/03/04 10:15:25;;;;;;;;;82.33;65.00;;;;;6.52;42.69;99305.00;5008274;28;9059;-74
2022/03/04 10:18:00;;;;;;;;;81.00;64.00;;;;;6.83;41.55;99298.44;4974611;28;9067;-74
2022/03/04 10:20:40;;;;;;;;;80.67;65.00;;;;;6.03;42.21;99309.53;5007964;28;9089;-74
2022/03/04 10:23:18;;;;;;;;;89.25;70.00;;;;;5.71;44.38;99302.16;5010256;28;9270;-74
2022/03/04 10:25:49;;;;;;;;;82.33;62.67;;;;;6.18;43.98;99298.50;4990207;28;9669;-73
2022/03/04 10:28:20;;;;;;;;;83.67;66.00;;;;;6.66;43.40;99296.53;4989214;28;9170;-74
2022/03/04 10:30:50;;;;;;;;;80.00;62.00;;;;;6.90;41.83;99293.28;4990349;28;9140;-74
2022/03/04 10:33:20;;;;;;;;;75.00;59.33;;;;;7.20;41.14;99287.53;4989330;28;9477;-74
2022/03/04 10:36:06;;;;;;;;;79.33;62.00;;;;;7.61;41.36;99276.63;4986003;28;8989;-75
2022/03/04 10:38:35;;;;;;;;;74.75;59.00;;;;;7.70;38.22;99284.47;4985481;28;8932;-74
2022/03/04 10:41:26;;;;;;;;;77.00;60.75;;;;;6.75;38.49;99292.31;4953560;28;8868;-75
2022/03/04 10:43:57;;;;;;;;;71.00;57.50;;;;;6.59;38.97;99285.19;4986080;28;8880;-74
2022/03/04 10:46:26;;;;;;;;;73.75;56.00;;;;;6.91;40.05;99280.34;5002061;28;8872;-74
2022/03/04 10:48:57;;;;;;;;;76.00;60.75;;;;;6.95;39.27;99289.03;4970037;28;9437;-74
2022/03/04 10:51:37;;;;;;;;;71.00;57.75;;;;;7.23;39.48;99284.97;4986029;28;8910;-75
2022/03/04 10:54:13;;;;;;;;;69.25;54.50;;;;;7.53;38.16;99281.75;4972846;28;9028;-76
2022/03/04 10:56:49;;;;;;;;;78.50;61.50;;;;;7.46;38.17;99282.56;4989290;28;8846;-78
2022/03/04 10:59:20;;;;;;;;;74.00;59.00;;;;;7.68;38.51;99290.53;4989933;28;8847;-76
2022/03/04 11:01:49;;;;;;;;;72.25;57.00;;;;;7.31;38.70;99283.31;5021819;28;8886;-76
2022/03/04 11:04:20;;;;;;;;;73.50;60.00;;;;;7.87;38.34;99284.59;5006395;28;8885;-73
2022/03/04 11:06:50;;;;;;;;;70.00;56.75;;;;;8.17;38.56;99275.22;4947276;28;8874;-75
2022/03/04 11:09:24;;;;;;;;;85.75;65.00;;;;;8.13;37.65;99276.94;5008483;28;8954;-75
2022/03/04 11:11:54;;;;;;;;;76.75;60.50;;;;;7.80;38.92;99269.81;5006720;28;8854;-75
2022/03/04 11:14:24;;;;;;;;;71.75;57.25;;;;;7.54;39.73;99278.31;5006787;28;8854;-73
2022/03/04 11:16:52;;;;;;;;;82.00;60.67;;;;;7.80;39.11;99262.03;5006638;28;8904;-74
2022/03/04 11:19:24;;;;;;;;;76.00;61.00;;;;;7.84;38.96;99268.13;5003453;28;9169;-74
2022/03/04 11:21:52;;;;;;;;;76.25;59.75;;;;;7.36;39.47;99266.06;5006598;28;8962;-75
2022/03/04 11:24:30;;;;;;;;;73.25;58.75;;;;;7.52;39.60;99256.66;4956328;28;8894;-74
2022/03/04 11:27:05;;;;;;;;;70.25;56.50;;;;;8.05;38.46;99252.66;5006851;28;8884;-76
2022/03/04 11:29:36;;;;;;;;;75.25;58.25;;;;;8.58;38.06;99253.75;4989225;28;8882;-73
2022/03/04 11:32:07;;;;;;;;;77.25;61.00;;;;;8.88;36.84;99246.88;5007906;28;9004;-75
2022/03/04 11:34:40;;;;;;;;;71.67;57.00;;;;;8.37;36.88;99242.41;5006608;28;8972;-73
2022/03/04 11:37:16;;;;;;;;;79.25;60.25;;;;;8.37;37.73;99229.44;4999452;28;10345;-74
2022/03/04 11:40:01;;;;;;;;;65.25;52.25;;;;;7.98;37.62;99243.97;5005503;28;9009;-72
2022/03/04 11:42:37;;;;;;;;;71.75;58.00;;;;;7.96;37.74;99239.66;4988589;28;8866;-74
2022/03/04 11:45:10;;;;;;;;;71.75;56.25;;;;;8.17;36.69;99234.53;5003380;28;8957;-73